JLY7968 SBGO-SBSP
Flight info
| Callsign | JLY7968 |
|---|---|
| Flight time | N/A |
| Altitude | 34000 |
| Route | ESBOD DCT ISISA/N0453F350 DCT UTLOT |
| Aircraft | B738/M-SDE2E3FGHIRWXY/LB1 |
Departure
| Time | 2026-05-05 20:15 |
|---|---|
| Airport | Santa Genoveva International Airport (SBGO) |
Arrival
| Time | N/A |
|---|---|
| Airport | Congonhas–Deputado Freitas Nobre Airport (SBSP) |
| Time | Latitude | Longitude | Altitude | Speed | Heading |
|---|---|---|---|---|---|
| 2026-05-05 19:55 | -16.62980 | -49.21539 | 2434 ft | 0 kts | 64° |
| 2026-05-05 20:06 | -16.62980 | -49.21540 | 2434 ft | 1 kts | 64° |
| 2026-05-05 20:06 | -16.62986 | -49.21552 | 2434 ft | 3 kts | 54° |
| 2026-05-05 20:07 | -16.62999 | -49.21568 | 2431 ft | 3 kts | 37° |
| 2026-05-05 20:07 | -16.63016 | -49.21579 | 2432 ft | 3 kts | 25° |
| 2026-05-05 20:07 | -16.63023 | -49.21582 | 2430 ft | 0 kts | 23° |
| 2026-05-05 20:10 | -16.63021 | -49.21582 | 2434 ft | 2 kts | 20° |
| 2026-05-05 20:11 | -16.62978 | -49.21604 | 2434 ft | 10 kts | 324° |
| 2026-05-05 20:11 | -16.62922 | -49.21665 | 2433 ft | 14 kts | 280° |
| 2026-05-05 20:11 | -16.62941 | -49.21779 | 2433 ft | 18 kts | 257° |
| 2026-05-05 20:11 | -16.62971 | -49.21920 | 2431 ft | 22 kts | 257° |
| 2026-05-05 20:12 | -16.62991 | -49.22089 | 2432 ft | 25 kts | 276° |
| 2026-05-05 20:12 | -16.62918 | -49.22266 | 2430 ft | 29 kts | 301° |
| 2026-05-05 20:12 | -16.62814 | -49.22453 | 2428 ft | 30 kts | 300° |
| 2026-05-05 20:12 | -16.62714 | -49.22632 | 2428 ft | 28 kts | 300° |
| 2026-05-05 20:13 | -16.62618 | -49.22801 | 2427 ft | 26 kts | 301° |
| 2026-05-05 20:13 | -16.62591 | -49.22928 | 2425 ft | 12 kts | 224° |
| 2026-05-05 20:13 | -16.62633 | -49.22957 | 2424 ft | 6 kts | 212° |
| 2026-05-05 20:13 | -16.62672 | -49.22983 | 2424 ft | 7 kts | 214° |
| 2026-05-05 20:14 | -16.62714 | -49.22969 | 2427 ft | 7 kts | 125° |
| 2026-05-05 20:14 | -16.62794 | -49.22828 | 2428 ft | 57 kts | 120° |
| 2026-05-05 20:14 | -16.63136 | -49.22219 | 2429 ft | 134 kts | 120° |
| 2026-05-05 20:14 | -16.63687 | -49.21235 | 2875 ft | 166 kts | 119° |
| 2026-05-05 20:15 | -16.64270 | -49.20215 | 3890 ft | 163 kts | 120° |
| 2026-05-05 20:15 | -16.64880 | -49.19131 | 4535 ft | 187 kts | 118° |
| 2026-05-05 20:15 | -16.65591 | -49.17851 | 4791 ft | 219 kts | 119° |
| 2026-05-05 20:15 | -16.66393 | -49.16425 | 5158 ft | 241 kts | 122° |
| 2026-05-05 20:16 | -16.67711 | -49.15197 | 5514 ft | 268 kts | 154° |
| 2026-05-05 20:16 | -16.69568 | -49.14906 | 6426 ft | 277 kts | 186° |
| 2026-05-05 20:16 | -16.71343 | -49.15706 | 7303 ft | 287 kts | 219° |
| 2026-05-05 20:16 | -16.72562 | -49.17376 | 7877 ft | 294 kts | 238° |
| 2026-05-05 20:17 | -16.73740 | -49.19115 | 8114 ft | 295 kts | 226° |
| 2026-05-05 20:17 | -16.75317 | -49.20419 | 8136 ft | 288 kts | 202° |
| 2026-05-05 20:17 | -16.77225 | -49.21038 | 8162 ft | 289 kts | 192° |
| 2026-05-05 20:17 | -16.79173 | -49.21625 | 8152 ft | 293 kts | 195° |
| 2026-05-05 20:18 | -16.81116 | -49.22299 | 8138 ft | 294 kts | 197° |
| 2026-05-05 20:18 | -16.83033 | -49.23012 | 8122 ft | 290 kts | 198° |
| 2026-05-05 20:18 | -16.84920 | -49.23731 | 8115 ft | 286 kts | 198° |
| 2026-05-05 20:18 | -16.86839 | -49.24264 | 8095 ft | 286 kts | 179° |
| 2026-05-05 20:19 | -16.88759 | -49.23934 | 8318 ft | 286 kts | 160° |
| 2026-05-05 20:19 | -16.90646 | -49.23247 | 9201 ft | 287 kts | 158° |
| 2026-05-05 20:19 | -16.92531 | -49.22524 | 9818 ft | 288 kts | 158° |
| 2026-05-05 20:19 | -16.94414 | -49.21796 | 10063 ft | 289 kts | 158° |
| 2026-05-05 20:20 | -16.96305 | -49.21069 | 10081 ft | 290 kts | 158° |
| 2026-05-05 20:20 | -16.98204 | -49.20343 | 10090 ft | 291 kts | 158° |
| 2026-05-05 20:20 | -17.00114 | -49.19616 | 10092 ft | 292 kts | 158° |
| 2026-05-05 20:20 | -17.02025 | -49.18890 | 10092 ft | 292 kts | 158° |
| 2026-05-05 20:21 | -17.03937 | -49.18167 | 10090 ft | 292 kts | 158° |
| 2026-05-05 20:21 | -17.05854 | -49.17443 | 10086 ft | 293 kts | 158° |
| 2026-05-05 20:21 | -17.07743 | -49.16730 | 10093 ft | 292 kts | 158° |
| 2026-05-05 20:21 | -17.09679 | -49.15999 | 10091 ft | 292 kts | 158° |
| 2026-05-05 20:22 | -17.11560 | -49.15290 | 10091 ft | 291 kts | 158° |
| 2026-05-05 20:22 | -17.13466 | -49.14571 | 10088 ft | 291 kts | 158° |
| 2026-05-05 20:22 | -17.15371 | -49.13852 | 10090 ft | 290 kts | 158° |
| 2026-05-05 20:22 | -17.17272 | -49.13134 | 10092 ft | 290 kts | 158° |
| 2026-05-05 20:23 | -17.19164 | -49.12420 | 10089 ft | 289 kts | 158° |
| 2026-05-05 20:23 | -17.21059 | -49.11704 | 10094 ft | 289 kts | 158° |
| 2026-05-05 20:23 | -17.22953 | -49.10988 | 10096 ft | 289 kts | 158° |
| 2026-05-05 20:23 | -17.24847 | -49.10273 | 10093 ft | 290 kts | 158° |
| 2026-05-05 20:24 | -17.26751 | -49.09554 | 10094 ft | 290 kts | 158° |
| 2026-05-05 20:24 | -17.28651 | -49.08836 | 10100 ft | 290 kts | 158° |
| 2026-05-05 20:24 | -17.30610 | -49.08291 | 10091 ft | 294 kts | 172° |
| 2026-05-05 20:24 | -17.32655 | -49.08194 | 10096 ft | 294 kts | 176° |
| 2026-05-05 20:25 | -17.34684 | -49.08165 | 10102 ft | 295 kts | 177° |
| 2026-05-05 20:25 | -17.36733 | -49.08146 | 10102 ft | 295 kts | 176° |
| 2026-05-05 20:25 | -17.38797 | -49.08123 | 10106 ft | 295 kts | 176° |
| 2026-05-05 20:25 | -17.40849 | -49.08094 | 10100 ft | 296 kts | 176° |
| 2026-05-05 20:26 | -17.42908 | -49.08060 | 10090 ft | 296 kts | 176° |
| 2026-05-05 20:26 | -17.44968 | -49.08022 | 10101 ft | 296 kts | 176° |
| 2026-05-05 20:26 | -17.47023 | -49.07980 | 10093 ft | 296 kts | 176° |
| 2026-05-05 20:26 | -17.49090 | -49.07937 | 10093 ft | 296 kts | 176° |
| 2026-05-05 20:27 | -17.51146 | -49.07892 | 10094 ft | 295 kts | 176° |
| 2026-05-05 20:27 | -17.53202 | -49.07846 | 10101 ft | 295 kts | 176° |
| 2026-05-05 20:27 | -17.55252 | -49.07799 | 10099 ft | 295 kts | 176° |
| 2026-05-05 20:27 | -17.57303 | -49.07752 | 10103 ft | 294 kts | 176° |
| 2026-05-05 20:28 | -17.59352 | -49.07704 | 10105 ft | 295 kts | 176° |
| 2026-05-05 20:28 | -17.61377 | -49.07657 | 10097 ft | 295 kts | 176° |
| 2026-05-05 20:28 | -17.63429 | -49.07608 | 10103 ft | 295 kts | 176° |
| 2026-05-05 20:28 | -17.65481 | -49.07560 | 10099 ft | 295 kts | 176° |
| 2026-05-05 20:29 | -17.67533 | -49.07511 | 10098 ft | 295 kts | 176° |
| 2026-05-05 20:29 | -17.69578 | -49.07461 | 10099 ft | 294 kts | 176° |
| 2026-05-05 20:29 | -17.71630 | -49.07413 | 10098 ft | 294 kts | 176° |
| 2026-05-05 20:29 | -17.73673 | -49.07364 | 10097 ft | 293 kts | 176° |
| 2026-05-05 20:30 | -17.75708 | -49.07316 | 10102 ft | 293 kts | 176° |
| 2026-05-05 20:30 | -17.77743 | -49.07270 | 10107 ft | 292 kts | 176° |
| 2026-05-05 20:30 | -17.79782 | -49.07222 | 10102 ft | 292 kts | 176° |
| 2026-05-05 20:30 | -17.81814 | -49.07175 | 10110 ft | 292 kts | 176° |
| 2026-05-05 20:31 | -17.83848 | -49.07127 | 10106 ft | 293 kts | 176° |
| 2026-05-05 20:31 | -17.85886 | -49.07079 | 10103 ft | 293 kts | 176° |
| 2026-05-05 20:31 | -17.87921 | -49.07031 | 10104 ft | 293 kts | 176° |
| 2026-05-05 20:31 | -17.89938 | -49.06984 | 10108 ft | 293 kts | 176° |
| 2026-05-05 20:32 | -17.91980 | -49.06937 | 10112 ft | 294 kts | 176° |
| 2026-05-05 20:32 | -17.94025 | -49.06889 | 10111 ft | 294 kts | 176° |
| 2026-05-05 20:32 | -17.96076 | -49.06841 | 10108 ft | 295 kts | 176° |
| 2026-05-05 20:32 | -17.98122 | -49.06793 | 10100 ft | 295 kts | 176° |
| 2026-05-05 20:33 | -18.00171 | -49.06745 | 10109 ft | 295 kts | 176° |
| 2026-05-05 20:33 | -18.02224 | -49.06696 | 10105 ft | 295 kts | 176° |
| 2026-05-05 20:33 | -18.04279 | -49.06647 | 10106 ft | 295 kts | 176° |
| 2026-05-05 20:33 | -18.06330 | -49.06598 | 10105 ft | 295 kts | 176° |
| 2026-05-05 20:34 | -18.08384 | -49.06549 | 10111 ft | 295 kts | 176° |
| 2026-05-05 20:34 | -18.10441 | -49.06500 | 10103 ft | 295 kts | 176° |
| 2026-05-05 20:34 | -18.12465 | -49.06452 | 10100 ft | 295 kts | 176° |
| 2026-05-05 20:34 | -18.14513 | -49.06402 | 10105 ft | 294 kts | 176° |
| 2026-05-05 20:35 | -18.16556 | -49.06354 | 10106 ft | 293 kts | 176° |
| 2026-05-05 20:35 | -18.18596 | -49.06306 | 10101 ft | 292 kts | 176° |
| 2026-05-05 20:35 | -18.20627 | -49.06258 | 10100 ft | 291 kts | 176° |
| 2026-05-05 20:35 | -18.22652 | -49.06210 | 10106 ft | 291 kts | 176° |
| 2026-05-05 20:36 | -18.24674 | -49.06162 | 10107 ft | 290 kts | 176° |
| 2026-05-05 20:36 | -18.26694 | -49.06114 | 10106 ft | 290 kts | 176° |
| 2026-05-05 20:36 | -18.28715 | -49.06066 | 10115 ft | 290 kts | 176° |
| 2026-05-05 20:36 | -18.30737 | -49.06018 | 10115 ft | 291 kts | 176° |
| 2026-05-05 20:37 | -18.32740 | -49.05970 | 10102 ft | 291 kts | 176° |
| 2026-05-05 20:37 | -18.34105 | -49.05937 | 10105 ft | 292 kts | 176° |
| 2026-05-05 20:37 | -18.36795 | -49.05874 | 10107 ft | 292 kts | 176° |
| 2026-05-05 20:37 | -18.38828 | -49.05825 | 10107 ft | 292 kts | 176° |
| 2026-05-05 20:38 | -18.40856 | -49.05777 | 10116 ft | 291 kts | 176° |
| 2026-05-05 20:38 | -18.42874 | -49.05729 | 10104 ft | 289 kts | 176° |
| 2026-05-05 20:38 | -18.44880 | -49.05682 | 10102 ft | 287 kts | 176° |
| 2026-05-05 20:38 | -18.46875 | -49.05635 | 10104 ft | 286 kts | 176° |
| 2026-05-05 20:39 | -18.48862 | -49.05588 | 10104 ft | 285 kts | 176° |
| 2026-05-05 20:39 | -18.50849 | -49.05540 | 10106 ft | 285 kts | 176° |
| 2026-05-05 20:39 | -18.52162 | -49.05509 | 10111 ft | 285 kts | 176° |
| 2026-05-05 20:39 | -18.54816 | -49.05446 | 10111 ft | 286 kts | 176° |
| 2026-05-05 20:40 | -18.56137 | -49.05414 | 10109 ft | 286 kts | 176° |
| 2026-05-05 20:40 | -18.58776 | -49.05351 | 10108 ft | 287 kts | 176° |
| 2026-05-05 20:40 | -18.60127 | -49.05319 | 10114 ft | 287 kts | 176° |
| 2026-05-05 20:40 | -18.62128 | -49.05271 | 10110 ft | 287 kts | 176° |
| 2026-05-05 20:41 | -18.64128 | -49.05223 | 10113 ft | 287 kts | 176° |
| 2026-05-05 20:41 | -18.66106 | -49.05176 | 10106 ft | 288 kts | 176° |
| 2026-05-05 20:41 | -18.68111 | -49.05128 | 10108 ft | 288 kts | 176° |
| 2026-05-05 20:41 | -18.70119 | -49.05080 | 10115 ft | 288 kts | 176° |
| 2026-05-05 20:42 | -18.72122 | -49.05032 | 10116 ft | 289 kts | 176° |
| 2026-05-05 20:42 | -18.74134 | -49.04984 | 10113 ft | 289 kts | 176° |
| 2026-05-05 20:42 | -18.76144 | -49.04936 | 10111 ft | 289 kts | 176° |
| 2026-05-05 20:42 | -18.78160 | -49.04888 | 10114 ft | 289 kts | 177° |
| 2026-05-05 20:43 | -18.80172 | -49.04840 | 10111 ft | 289 kts | 176° |
| 2026-05-05 20:43 | -18.82187 | -49.04792 | 10113 ft | 289 kts | 176° |
| 2026-05-05 20:43 | -18.84201 | -49.04744 | 10107 ft | 289 kts | 176° |
| 2026-05-05 20:43 | -18.86188 | -49.04697 | 10112 ft | 289 kts | 176° |
| 2026-05-05 20:44 | -18.88220 | -49.04648 | 10110 ft | 289 kts | 176° |
| 2026-05-05 20:44 | -18.90227 | -49.04600 | 10104 ft | 288 kts | 176° |
| 2026-05-05 20:44 | -18.92233 | -49.04552 | 10107 ft | 288 kts | 176° |
| 2026-05-05 20:44 | -18.94216 | -49.04505 | 10111 ft | 289 kts | 176° |
| 2026-05-05 20:45 | -18.98268 | -49.04407 | 10110 ft | 290 kts | 176° |
| 2026-05-05 20:45 | -19.00268 | -49.04360 | 10111 ft | 291 kts | 176° |
| 2026-05-05 20:45 | -19.02294 | -49.04311 | 10110 ft | 291 kts | 176° |
| 2026-05-05 20:46 | -19.04322 | -49.04263 | 10110 ft | 292 kts | 176° |
| 2026-05-05 20:46 | -19.06350 | -49.04214 | 10109 ft | 292 kts | 176° |
| 2026-05-05 20:46 | -19.08386 | -49.04165 | 10106 ft | 292 kts | 176° |
| 2026-05-05 20:46 | -19.10419 | -49.04117 | 10110 ft | 292 kts | 176° |
| 2026-05-05 20:47 | -19.12460 | -49.04068 | 10111 ft | 292 kts | 176° |
| 2026-05-05 20:47 | -19.14488 | -49.04019 | 10113 ft | 292 kts | 176° |
| 2026-05-05 20:47 | -19.16521 | -49.03971 | 10106 ft | 292 kts | 177° |
| 2026-05-05 20:47 | -19.18547 | -49.03922 | 10110 ft | 292 kts | 176° |
| 2026-05-05 20:48 | -19.20580 | -49.03873 | 10119 ft | 292 kts | 176° |
| 2026-05-05 20:48 | -19.22613 | -49.03824 | 10110 ft | 292 kts | 177° |
| 2026-05-05 20:48 | -19.24641 | -49.03775 | 10111 ft | 292 kts | 176° |
| 2026-05-05 20:48 | -19.26645 | -49.03727 | 10111 ft | 292 kts | 177° |
| 2026-05-05 20:49 | -19.28671 | -49.03679 | 10112 ft | 291 kts | 177° |
| 2026-05-05 20:49 | -19.30705 | -49.03630 | 10113 ft | 292 kts | 177° |
| 2026-05-05 20:49 | -19.32738 | -49.03581 | 10107 ft | 292 kts | 177° |
| 2026-05-05 20:49 | -19.34768 | -49.03532 | 10111 ft | 292 kts | 177° |
| 2026-05-05 20:50 | -19.36801 | -49.03483 | 10104 ft | 292 kts | 177° |
| 2026-05-05 20:50 | -19.38833 | -49.03434 | 10107 ft | 292 kts | 177° |
| 2026-05-05 20:50 | -19.40867 | -49.03386 | 10110 ft | 292 kts | 177° |
| 2026-05-05 20:50 | -19.42898 | -49.03337 | 10106 ft | 293 kts | 177° |
| 2026-05-05 20:51 | -19.44939 | -49.03287 | 10106 ft | 293 kts | 177° |
| 2026-05-05 20:51 | -19.46982 | -49.03238 | 10111 ft | 294 kts | 176° |
| 2026-05-05 20:51 | -19.49031 | -49.03189 | 10114 ft | 295 kts | 177° |
| 2026-05-05 20:51 | -19.51082 | -49.03139 | 10109 ft | 295 kts | 177° |
| 2026-05-05 20:52 | -19.53135 | -49.03090 | 10106 ft | 296 kts | 177° |
| 2026-05-05 20:52 | -19.55190 | -49.03040 | 10104 ft | 295 kts | 177° |
| 2026-05-05 20:52 | -19.57249 | -49.02991 | 10102 ft | 295 kts | 177° |
| 2026-05-05 20:52 | -19.59300 | -49.02942 | 10119 ft | 295 kts | 176° |
| 2026-05-05 20:53 | -19.61348 | -49.02892 | 10108 ft | 295 kts | 177° |
| 2026-05-05 20:53 | -19.63370 | -49.02843 | 10121 ft | 294 kts | 177° |
| 2026-05-05 20:53 | -19.65423 | -49.02794 | 10116 ft | 295 kts | 177° |
| 2026-05-05 20:53 | -19.67475 | -49.02744 | 10108 ft | 295 kts | 176° |
| 2026-05-05 20:54 | -19.69524 | -49.02695 | 10104 ft | 295 kts | 176° |
| 2026-05-05 20:54 | -19.71579 | -49.02645 | 10117 ft | 295 kts | 176° |
| 2026-05-05 20:54 | -19.73635 | -49.02596 | 10102 ft | 295 kts | 176° |
| 2026-05-05 20:54 | -19.75686 | -49.02546 | 10115 ft | 295 kts | 177° |
| 2026-05-05 20:55 | -19.77736 | -49.02496 | 10107 ft | 295 kts | 177° |
| 2026-05-05 20:55 | -19.79790 | -49.02447 | 10106 ft | 295 kts | 177° |
| 2026-05-05 20:55 | -19.81841 | -49.02397 | 10118 ft | 295 kts | 177° |
| 2026-05-05 20:55 | -19.83896 | -49.02347 | 10122 ft | 295 kts | 177° |
| 2026-05-05 20:56 | -19.85948 | -49.02297 | 10102 ft | 295 kts | 177° |
| 2026-05-05 20:56 | -19.87973 | -49.02249 | 10119 ft | 295 kts | 177° |
| 2026-05-05 20:56 | -19.90026 | -49.02199 | 10106 ft | 295 kts | 177° |
| 2026-05-05 20:56 | -19.92076 | -49.02150 | 10104 ft | 295 kts | 177° |
| 2026-05-05 20:57 | -19.94128 | -49.02100 | 10112 ft | 294 kts | 176° |
| 2026-05-05 20:57 | -19.96173 | -49.02051 | 10107 ft | 294 kts | 176° |
| 2026-05-05 20:57 | -19.98215 | -49.02001 | 10106 ft | 293 kts | 176° |
| 2026-05-05 20:57 | -20.00260 | -49.01952 | 10120 ft | 293 kts | 176° |
| 2026-05-05 20:58 | -20.02299 | -49.01902 | 10117 ft | 293 kts | 176° |
| 2026-05-05 20:58 | -20.04335 | -49.01853 | 10114 ft | 293 kts | 176° |
| 2026-05-05 20:58 | -20.06375 | -49.01803 | 10101 ft | 293 kts | 176° |
| 2026-05-05 20:58 | -20.08413 | -49.01754 | 10113 ft | 293 kts | 176° |
| 2026-05-05 20:59 | -20.10430 | -49.01705 | 10116 ft | 293 kts | 176° |
| 2026-05-05 20:59 | -20.12471 | -49.01655 | 10112 ft | 294 kts | 176° |
| 2026-05-05 20:59 | -20.14516 | -49.01606 | 10105 ft | 294 kts | 176° |
| 2026-05-05 20:59 | -20.16562 | -49.01556 | 10121 ft | 293 kts | 176° |
| 2026-05-05 21:00 | -20.18598 | -49.01507 | 10125 ft | 293 kts | 176° |
| 2026-05-05 21:00 | -20.20642 | -49.01457 | 10121 ft | 292 kts | 176° |
| 2026-05-05 21:00 | -20.22672 | -49.01408 | 10115 ft | 292 kts | 176° |
| 2026-05-05 21:00 | -20.24706 | -49.01358 | 10112 ft | 291 kts | 176° |
| 2026-05-05 21:01 | -20.26703 | -49.01310 | 10108 ft | 290 kts | 176° |
| 2026-05-05 21:01 | -20.28728 | -49.01261 | 10105 ft | 290 kts | 176° |
| 2026-05-05 21:01 | -20.30738 | -49.01212 | 10115 ft | 289 kts | 176° |
| 2026-05-05 21:01 | -20.32750 | -49.01163 | 10117 ft | 289 kts | 176° |
| 2026-05-05 21:02 | -20.34766 | -49.01114 | 10115 ft | 289 kts | 176° |
| 2026-05-05 21:02 | -20.36776 | -49.01065 | 10117 ft | 289 kts | 176° |
| 2026-05-05 21:02 | -20.38790 | -49.01015 | 10114 ft | 290 kts | 176° |
| 2026-05-05 21:02 | -20.40813 | -49.00966 | 10121 ft | 290 kts | 176° |
| 2026-05-05 21:03 | -20.42831 | -49.00917 | 10101 ft | 290 kts | 176° |
| 2026-05-05 21:03 | -20.44852 | -49.00867 | 10117 ft | 290 kts | 176° |
| 2026-05-05 21:03 | -20.46874 | -49.00818 | 10110 ft | 291 kts | 176° |
| 2026-05-05 21:03 | -20.48894 | -49.00769 | 10111 ft | 291 kts | 176° |
| 2026-05-05 21:04 | -20.50916 | -49.00720 | 10122 ft | 291 kts | 176° |
| 2026-05-05 21:04 | -20.52938 | -49.00670 | 10117 ft | 291 kts | 176° |
| 2026-05-05 21:04 | -20.54967 | -49.00621 | 10119 ft | 291 kts | 176° |
| 2026-05-05 21:04 | -20.56969 | -49.00572 | 10119 ft | 291 kts | 176° |
| 2026-05-05 21:05 | -20.58993 | -49.00523 | 10114 ft | 291 kts | 176° |
| 2026-05-05 21:05 | -20.61018 | -49.00473 | 10121 ft | 291 kts | 176° |
| 2026-05-05 21:05 | -20.63035 | -49.00424 | 10120 ft | 290 kts | 176° |
| 2026-05-05 21:05 | -20.65059 | -49.00375 | 10117 ft | 290 kts | 176° |
| 2026-05-05 21:06 | -20.67074 | -49.00325 | 10108 ft | 290 kts | 176° |
| 2026-05-05 21:06 | -20.69094 | -49.00276 | 10115 ft | 290 kts | 176° |
| 2026-05-05 21:06 | -20.71112 | -49.00226 | 10121 ft | 290 kts | 176° |
| 2026-05-05 21:06 | -20.73129 | -49.00177 | 10121 ft | 290 kts | 176° |
| 2026-05-05 21:07 | -20.75145 | -49.00128 | 10117 ft | 290 kts | 176° |
| 2026-05-05 21:07 | -20.77167 | -49.00078 | 10117 ft | 290 kts | 176° |
| 2026-05-05 21:07 | -20.79189 | -49.00029 | 10116 ft | 291 kts | 176° |